Time;durP1;ratioP1;P1;durP2;ratioP2;P2;SDS_P1;SDS_P2;PMS_P1;PMS_P2;Temp;Humidity;BMP_temperature;BMP_pressure;BME280_temperature;BME280_humidity;BME280_pressure;Samples;Min_cycle;Max_cycle;Signal;HPM_P1;HPM_P2
2023/12/01 00:00:02;;;;;;;47.3;28.5;;;;;;;0.64;80.37;;;;;
2023/12/01 00:11:01;;;;;;;47.3;28.5;;;;;;;0.52;80.81;;;;;
2023/12/01 00:21:01;;;;;;;48.5;28.5;;;;;;;0.49;80.76;;;;;
2023/12/01 00:32:01;;;;;;;48.5;28.5;;;;;;;0.52;81.01;;;;;
2023/12/01 00:43:01;;;;;;;51.5;28.1;;;;;;;0.49;81.02;;;;;
2023/12/01 00:53:01;;;;;;;51.5;28.1;;;;;;;0.56;80.85;;;;;
2023/12/01 01:04:01;;;;;;;51.5;28.1;;;;;;;0.52;80.76;;;;;
2023/12/01 01:14:01;;;;;;;44.9;27.2;;;;;;;0.43;81.54;;;;;
2023/12/01 01:25:01;;;;;;;44.9;27.2;;;;;;;0.35;82;;;;;
2023/12/01 01:35:01;;;;;;;44.9;27.2;;;;;;;0.51;81.5;;;;;
2023/12/01 01:46:01;;;;;;;47.2;29.2;;;;;;;0.49;81.14;;;;;
2023/12/01 01:56:02;;;;;;;47.2;29.2;;;;;;;0.25;81.79;;;;;
2023/12/01 02:06:06;;;;;;;47.2;29.2;;;;;;;0.01;82.74;;;;;
2023/12/01 02:17:01;;;;;;;49.1;28.3;;;;;;;0.05;82.9;;;;;
2023/12/01 02:27:01;;;;;;;49.1;28.3;;;;;;;0.1;82.66;;;;;
2023/12/01 02:37:01;;;;;;;49.1;28.3;;;;;;;0.14;82.27;;;;;
2023/12/01 02:48:01;;;;;;;44.9;26.8;;;;;;;0.22;81.99;;;;;
2023/12/01 02:58:01;;;;;;;44.9;26.8;;;;;;;0.27;81.78;;;;;
2023/12/01 03:09:01;;;;;;;44.9;26.8;;;;;;;0.16;81.89;;;;;
2023/12/01 03:19:01;;;;;;;40.9;23.4;;;;;;;0.2;82.24;;;;;
2023/12/01 03:30:01;;;;;;;40.9;23.4;;;;;;;0.21;81.92;;;;;
2023/12/01 03:41:01;;;;;;;40.9;23.4;;;;;;;0.26;81.87;;;;;
2023/12/01 03:51:01;;;;;;;37.2;22.7;;;;;;;0.3;81.76;;;;;
2023/12/01 04:01:05;;;;;;;37.2;22.7;;;;;;;0.22;82.4;;;;;
2023/12/01 04:12:01;;;;;;;43.3;23.8;;;;;;;0.29;82.22;;;;;
2023/12/01 04:23:02;;;;;;;43.3;23.8;;;;;;;0.33;82.32;;;;;
2023/12/01 04:33:01;;;;;;;43.3;23.8;;;;;;;0.4;82.37;;;;;
2023/12/01 04:43:01;;;;;;;37.2;22.5;;;;;;;0.37;82.06;;;;;
2023/12/01 04:53:02;;;;;;;37.2;22.5;;;;;;;0.36;82.13;;;;;
2023/12/01 05:03:01;;;;;;;37.2;22.5;;;;;;;0.23;82.25;;;;;
2023/12/01 05:14:08;;;;;;;31.3;21.4;;;;;;;0.24;82.4;;;;;
2023/12/01 05:24:01;;;;;;;31.3;21.4;;;;;;;0.18;82.38;;;;;
2023/12/01 05:34:05;;;;;;;31.3;21.4;;;;;;;0.2;82.13;;;;;
2023/12/01 05:44:02;;;;;;;35.4;20;;;;;;;0.12;82.29;;;;;
2023/12/01 05:54:01;;;;;;;35.4;20;;;;;;;0.14;82.42;;;;;
2023/12/01 06:05:01;;;;;;;35.4;20;;;;;;;-0.04;83.12;;;;;
2023/12/01 06:16:01;;;;;;;34.8;19.5;;;;;;;0.09;83.09;;;;;
2023/12/01 06:26:01;;;;;;;34.8;19.5;;;;;;;-0.06;83.31;;;;;
2023/12/01 06:37:01;;;;;;;34.8;19.5;;;;;;;-0.03;83.54;;;;;
2023/12/01 06:47:01;;;;;;;40.9;21.4;;;;;;;-0.05;83.43;;;;;
2023/12/01 06:58:01;;;;;;;40.9;21.4;;;;;;;0.07;83.74;;;;;
2023/12/01 07:09:01;;;;;;;40.9;21.4;;;;;;;0.12;83.1;;;;;
2023/12/01 07:19:01;;;;;;;42.7;23.8;;;;;;;0.42;83.27;;;;;
2023/12/01 07:30:01;;;;;;;42.7;23.8;;;;;;;0.75;83.27;;;;;
2023/12/01 07:40:01;;;;;;;42.7;23.8;;;;;;;0.93;82.02;;;;;
2023/12/01 07:50:02;;;;;;;59.9;34.7;;;;;;;1.19;81.65;;;;;
2023/12/01 08:00:02;;;;;;;59.9;34.7;;;;;;;1.25;81.4;;;;;
2023/12/01 08:11:04;;;;;;;51.5;30.9;;;;;;;1.45;81.29;;;;;
2023/12/01 08:22:01;;;;;;;51.5;30.9;;;;;;;1.73;80.49;;;;;
2023/12/01 08:33:01;;;;;;;51.5;30.9;;;;;;;2.2;79.57;;;;;
2023/12/01 08:43:01;;;;;;;46.7;29.1;;;;;;;2.46;78.83;;;;;
2023/12/01 08:54:01;;;;;;;46.7;29.1;;;;;;;2.44;78.21;;;;;
2023/12/01 09:05:01;;;;;;;46.7;29.1;;;;;;;2.76;76.62;;;;;
2023/12/01 09:15:01;;;;;;;49.3;28.9;;;;;;;2.79;76.36;;;;;
2023/12/01 09:26:01;;;;;;;49.3;28.9;;;;;;;2.89;76.37;;;;;
2023/12/01 09:36:01;;;;;;;49.3;28.9;;;;;;;3.02;74.75;;;;;
2023/12/01 09:46:02;;;;;;;42.3;27.3;;;;;;;3.3;73.6;;;;;
2023/12/01 09:57:03;;;;;;;42.3;27.3;;;;;;;3.73;73.11;;;;;
2023/12/01 10:08:01;;;;;;;42.3;27.3;;;;;;;3.65;70.65;;;;;
2023/12/01 10:18:01;;;;;;;50.7;31.4;;;;;;;3.56;70.82;;;;;
2023/12/01 10:29:01;;;;;;;50.7;31.4;;;;;;;3.63;70.25;;;;;
2023/12/01 10:39:03;;;;;;;50.7;31.4;;;;;;;3.53;70.47;;;;;
2023/12/01 10:49:01;;;;;;;53.8;32.7;;;;;;;3.53;70.35;;;;;
2023/12/01 11:00:04;;;;;;;53.8;32.7;;;;;;;4.02;69.23;;;;;
2023/12/01 11:11:01;;;;;;;57.6;35.2;;;;;;;3.39;70.66;;;;;
2023/12/01 11:22:01;;;;;;;57.6;35.2;;;;;;;3.71;69.35;;;;;
2023/12/01 11:33:01;;;;;;;57.6;35.2;;;;;;;3.77;69.65;;;;;
2023/12/01 11:43:02;;;;;;;62.7;35.8;;;;;;;3.4;70.79;;;;;
2023/12/01 11:54:01;;;;;;;62.7;35.8;;;;;;;3.54;69.92;;;;;
2023/12/01 12:04:04;;;;;;;62.7;35.8;;;;;;;3.66;69.1;;;;;
2023/12/01 12:15:01;;;;;;;66;38;;;;;;;3.37;68.18;;;;;
2023/12/01 12:26:01;;;;;;;66;38;;;;;;;3.26;69.45;;;;;
2023/12/01 12:36:01;;;;;;;66;38;;;;;;;3.32;69.62;;;;;
2023/12/01 12:47:02;;;;;;;58.7;36.1;;;;;;;2.49;72.72;;;;;
2023/12/01 12:57:02;;;;;;;58.7;36.1;;;;;;;2.43;72.59;;;;;
2023/12/01 13:07:01;;;;;;;58.7;36.1;;;;;;;2.3;72.61;;;;;
2023/12/01 13:18:01;;;;;;;70;37.7;;;;;;;2.27;72.45;;;;;
2023/12/01 13:29:01;;;;;;;70;37.7;;;;;;;2.01;73.04;;;;;
2023/12/01 13:39:02;;;;;;;70;37.7;;;;;;;1.7;72.62;;;;;
2023/12/01 13:50:01;;;;;;;48.9;28;;;;;;;1.54;72.98;;;;;
2023/12/01 14:00:02;;;;;;;48.9;28;;;;;;;1.6;73.54;;;;;
2023/12/01 14:11:01;;;;;;;35.6;21.3;;;;;;;1.59;74.11;;;;;
2023/12/01 14:22:01;;;;;;;35.6;21.3;;;;;;;1.59;73.55;;;;;
2023/12/01 14:32:01;;;;;;;35.6;21.3;;;;;;;1.47;73.75;;;;;
2023/12/01 14:42:01;;;;;;;39.4;21.4;;;;;;;1.22;74.29;;;;;
2023/12/01 14:52:01;;;;;;;39.4;21.4;;;;;;;1.14;75.5;;;;;
2023/12/01 15:03:01;;;;;;;39.4;21.4;;;;;;;1.07;76.72;;;;;
2023/12/01 15:13:01;;;;;;;49.2;28.2;;;;;;;0.93;77.91;;;;;
2023/12/01 15:24:02;;;;;;;49.2;28.2;;;;;;;0.8;79.09;;;;;
2023/12/01 15:35:01;;;;;;;49.2;28.2;;;;;;;0.73;79.65;;;;;
2023/12/01 15:46:01;;;;;;;49.8;27.6;;;;;;;0.6;79.78;;;;;
2023/12/01 15:56:02;;;;;;;49.8;27.6;;;;;;;0.77;79.33;;;;;
2023/12/01 16:06:02;;;;;;;49.8;27.6;;;;;;;0.7;78.89;;;;;
2023/12/01 16:17:02;;;;;;;47.1;24.9;;;;;;;0.88;78.26;;;;;
2023/12/01 16:28:01;;;;;;;47.1;24.9;;;;;;;0.73;78.99;;;;;
2023/12/01 16:39:04;;;;;;;47.1;24.9;;;;;;;0.68;79.43;;;;;
2023/12/01 16:50:02;;;;;;;49.7;25.9;;;;;;;0.55;80.67;;;;;
2023/12/01 17:01:01;;;;;;;49.7;25.9;;;;;;;0.33;82.42;;;;;
2023/12/01 17:11:01;;;;;;;51.3;30.4;;;;;;;0.32;83.32;;;;;
2023/12/01 17:21:01;;;;;;;51.3;30.4;;;;;;;0.31;83.72;;;;;
2023/12/01 17:31:01;;;;;;;51.3;30.4;;;;;;;0.16;84.74;;;;;
2023/12/01 17:41:02;;;;;;;51.4;30.7;;;;;;;0.14;85.18;;;;;
2023/12/01 17:52:01;;;;;;;51.4;30.7;;;;;;;0.06;85.76;;;;;
2023/12/01 18:03:01;;;;;;;51.4;30.7;;;;;;;0.17;85.95;;;;;
2023/12/01 18:14:02;;;;;;;61.4;34.1;;;;;;;-0.05;86.96;;;;;
2023/12/01 18:25:01;;;;;;;61.4;34.1;;;;;;;0.13;86.52;;;;;
2023/12/01 18:35:01;;;;;;;61.4;34.1;;;;;;;0.11;86.59;;;;;
2023/12/01 18:46:01;;;;;;;60.5;32.9;;;;;;;0.03;86.99;;;;;
2023/12/01 18:56:02;;;;;;;60.5;32.9;;;;;;;-0.03;86.92;;;;;
2023/12/01 19:06:01;;;;;;;60.5;32.9;;;;;;;-0.09;86.92;;;;;
2023/12/01 19:16:01;;;;;;;52.5;32.9;;;;;;;-0.18;87.4;;;;;
2023/12/01 19:26:01;;;;;;;52.5;32.9;;;;;;;-0.23;87.24;;;;;
2023/12/01 19:36:01;;;;;;;52.5;32.9;;;;;;;-0.31;87.62;;;;;
2023/12/01 19:46:01;;;;;;;49.4;29.7;;;;;;;-0.26;87.59;;;;;
2023/12/01 19:57:01;;;;;;;49.4;29.7;;;;;;;-0.29;87.78;;;;;
2023/12/01 20:07:01;;;;;;;49.4;29.7;;;;;;;-0.34;87.83;;;;;
2023/12/01 20:17:01;;;;;;;44.1;25.1;;;;;;;-0.34;87.93;;;;;
2023/12/01 20:28:01;;;;;;;44.1;25.1;;;;;;;-0.37;87.79;;;;;
2023/12/01 20:39:02;;;;;;;41.4;26.1;;;;;;;-0.5;87.72;;;;;
2023/12/01 20:49:03;;;;;;;41.4;26.1;;;;;;;-0.5;88.04;;;;;
2023/12/01 21:00:02;;;;;;;41.4;26.1;;;;;;;-0.6;88.39;;;;;
2023/12/01 21:11:02;;;;;;;46.5;26.2;;;;;;;-0.76;88.56;;;;;
2023/12/01 21:22:03;;;;;;;46.5;26.2;;;;;;;-0.73;88.52;;;;;
2023/12/01 21:33:02;;;;;;;46.5;26.2;;;;;;;-0.68;88.24;;;;;
2023/12/01 21:43:02;;;;;;;42;25.1;;;;;;;-0.8;88.28;;;;;
2023/12/01 21:53:02;;;;;;;42;25.1;;;;;;;-0.82;88.61;;;;;
2023/12/01 22:04:01;;;;;;;42;25.1;;;;;;;-0.9;88.69;;;;;
2023/12/01 22:14:02;;;;;;;44.2;27.6;;;;;;;-0.96;89.14;;;;;
2023/12/01 22:25:02;;;;;;;44.2;27.6;;;;;;;-0.94;89.09;;;;;
2023/12/01 22:36:01;;;;;;;44.2;27.6;;;;;;;-0.79;88.96;;;;;
2023/12/01 22:46:03;;;;;;;42.8;24.1;;;;;;;-0.7;88.67;;;;;
2023/12/01 22:57:02;;;;;;;42.8;24.1;;;;;;;-0.78;88.54;;;;;
2023/12/01 23:07:02;;;;;;;42.8;24.1;;;;;;;-0.81;88.71;;;;;
2023/12/01 23:18:02;;;;;;;44.3;23.6;;;;;;;-0.82;89.02;;;;;
2023/12/01 23:28:02;;;;;;;44.3;23.6;;;;;;;-0.89;89.46;;;;;
2023/12/01 23:39:02;;;;;;;48.7;27.4;;;;;;;-0.94;89.16;;;;;
2023/12/01 23:50:02;;;;;;;48.7;27.4;;;;;;;-1.03;89.45;;;;;
